createdAt,value
2023-04-08T08:13:50.068Z,96953.38
2023-04-08T08:14:54.659Z,96980.66
2023-04-08T08:19:43.817Z,96978.28
2023-04-08T08:20:45.370Z,96999.25
2023-04-08T08:21:46.886Z,96996.47
2023-04-08T08:22:57.394Z,97003.38
2023-04-08T08:23:59.607Z,96993.84
2023-04-08T08:25:01.078Z,96995.56
2023-04-08T08:46:58.864Z,97008.81
2023-04-08T08:48:01.335Z,97007.66
2023-04-08T08:49:02.996Z,97020.22
2023-04-08T08:50:05.144Z,97019.06
2023-04-08T08:51:12.053Z,97015.41
2023-04-08T08:52:18.031Z,97015.75
2023-04-08T08:53:23.233Z,97017.47
2023-04-08T08:54:24.639Z,97016.09
2023-04-08T08:55:44.839Z,97016.50
2023-04-08T08:56:48.979Z,97003.00
2023-04-08T08:57:51.238Z,97021.16
2023-04-08T08:58:53.120Z,97017.75
2023-04-08T08:59:54.633Z,97019.06
2023-04-08T09:00:56.447Z,97025.50
2023-04-08T09:01:57.927Z,97023.72
2023-04-08T09:03:18.001Z,97025.22
2023-04-08T09:04:22.609Z,97021.16
2023-04-08T09:05:24.480Z,97018.06
2023-04-08T09:06:26.314Z,97015.22
2023-04-08T09:07:29.875Z,97016.97
2023-04-08T09:08:38.088Z,97030.72
2023-04-08T09:09:52.575Z,97021.03
2023-04-08T09:10:55.618Z,97018.22
2023-04-08T09:12:04.512Z,97018.22
2023-04-08T09:13:05.879Z,97016.41
2023-04-08T09:14:26.253Z,97025.28
2023-04-08T09:15:27.818Z,97023.91
2023-04-08T09:16:31.210Z,97017.13
2023-04-08T09:17:39.909Z,97016.13
2023-04-08T09:18:44.559Z,97020.47
2023-04-08T09:20:11.704Z,97022.72
2023-04-08T09:21:14.709Z,97022.94
2023-04-08T09:22:16.442Z,97018.22
2023-04-08T09:23:17.773Z,97019.50
2023-04-08T09:24:30.579Z,97022.34
2023-04-08T09:25:34.115Z,97018.94
2023-04-08T09:26:37.521Z,97023.59
2023-04-08T09:27:39.096Z,97022.38
2023-04-08T09:28:41.682Z,97018.34
2023-04-08T09:29:43.451Z,97013.41
2023-04-08T09:30:44.860Z,97022.09
2023-04-08T09:31:47.500Z,97026.28
2023-04-08T09:32:51.214Z,97012.88
2023-04-08T09:34:10.541Z,97020.84
2023-04-08T09:35:12.026Z,97022.03
2023-04-08T09:36:13.678Z,97030.84
2023-04-08T09:37:15.526Z,97026.97
2023-04-08T09:38:17.240Z,97021.00
2023-04-08T09:39:19.265Z,97018.72
2023-04-08T09:40:21.930Z,97030.59
2023-04-08T09:41:24.301Z,97028.22
2023-04-08T09:42:26.230Z,97028.81
2023-04-08T09:43:27.929Z,97030.09
2023-04-08T09:44:31.616Z,97025.34
2023-04-08T09:45:36.799Z,97031.41
2023-04-08T09:46:50.473Z,97029.56
2023-04-08T09:47:58.235Z,97032.66
2023-04-08T09:49:29.628Z,97033.97
2023-04-08T09:50:40.465Z,97025.75
2023-04-08T09:52:07.233Z,97023.84
2023-04-08T09:53:15.622Z,97022.84
2023-04-08T09:54:23.150Z,97026.34
2023-04-08T09:55:27.754Z,97022.38
2023-04-08T09:56:41.887Z,97029.44
2023-04-08T09:57:46.635Z,97024.38
2023-04-08T09:59:10.079Z,97027.84
2023-04-08T10:00:17.405Z,97024.91
2023-04-08T10:01:26.888Z,97026.34
2023-04-08T10:02:34.035Z,97025.31
2023-04-08T10:03:41.229Z,97027.75
2023-04-08T10:04:48.921Z,97019.31
2023-04-08T10:05:53.232Z,97018.88
2023-04-08T10:06:59.956Z,97033.97
2023-04-08T10:08:01.410Z,97020.50
2023-04-08T10:09:04.318Z,97024.06
2023-04-08T10:10:07.646Z,97016.25
2023-04-08T10:11:09.347Z,97024.34
2023-04-08T10:12:10.826Z,97020.38
2023-04-08T10:13:12.613Z,97036.69
2023-04-08T10:14:14.017Z,97025.03
2023-04-08T10:15:36.844Z,97029.88
2023-04-08T10:16:38.788Z,97031.28
2023-04-08T10:17:40.298Z,97027.09
2023-04-08T10:18:43.008Z,97025.59
2023-04-08T10:19:44.645Z,97025.31
2023-04-08T10:20:49.630Z,97036.72
2023-04-08T10:21:51.005Z,97024.94
2023-04-08T10:22:52.390Z,97035.78
2023-04-08T10:23:56.677Z,97030.53
2023-04-08T10:25:16.710Z,97041.97
2023-04-08T10:26:34.854Z,97029.97
2023-04-08T10:27:42.665Z,97029.31
2023-04-08T10:28:44.035Z,97026.25
2023-04-08T10:29:46.378Z,97032.25
2023-04-08T10:30:51.312Z,97033.13
2023-04-08T10:31:53.036Z,97033.59
2023-04-08T10:33:00.380Z,97037.75
2023-04-08T10:34:18.673Z,97031.81
2023-04-08T10:35:35.602Z,97029.91
2023-04-08T10:36:37.882Z,97034.13
2023-04-08T10:37:39.541Z,97010.44
2023-04-08T10:38:42.649Z,97026.53
2023-04-08T10:39:49.395Z,97026.75
2023-04-08T10:40:51.383Z,97025.00
2023-04-08T10:41:52.982Z,97027.84
2023-04-08T10:42:55.924Z,97027.22
2023-04-08T10:43:57.246Z,97033.63
2023-04-08T10:45:00.623Z,97030.72
2023-04-08T10:46:02.426Z,97031.41
2023-04-08T10:47:03.897Z,97026.78
2023-04-08T10:48:18.747Z,97033.13
2023-04-08T10:49:20.250Z,97021.41
2023-04-08T10:50:23.658Z,97031.66
2023-04-08T10:51:25.044Z,97023.81
2023-04-08T10:52:27.759Z,97024.66
2023-04-08T10:53:31.095Z,97032.81
2023-04-08T10:54:32.855Z,97032.59
2023-04-08T10:55:34.959Z,97027.91
2023-04-08T10:56:43.601Z,97028.59
2023-04-08T10:57:44.968Z,97028.88
2023-04-08T10:58:56.129Z,97027.03
2023-04-08T10:59:57.713Z,97027.38
2023-04-08T11:01:08.420Z,97028.56
2023-04-08T11:02:14.520Z,97037.19
2023-04-08T11:03:17.055Z,97029.06
2023-04-08T11:04:19.594Z,97026.91
2023-04-08T11:05:23.283Z,97016.84
2023-04-08T11:06:25.547Z,97029.88
2023-04-08T11:07:27.227Z,97031.25
2023-04-08T11:08:33.034Z,97024.69
2023-04-08T11:09:34.435Z,97031.16
2023-04-08T11:10:38.945Z,97022.47
2023-04-08T11:11:45.385Z,97026.06
2023-04-08T11:12:46.965Z,97028.34
2023-04-08T11:13:53.170Z,97020.00
2023-04-08T11:14:55.837Z,97018.03
2023-04-08T11:15:59.961Z,97025.63
2023-04-08T11:17:02.394Z,97021.56
2023-04-08T11:18:05.400Z,97018.38
2023-04-08T11:19:07.595Z,97020.72
2023-04-08T11:20:09.641Z,97027.75
2023-04-08T11:21:11.430Z,97020.47
2023-04-08T11:22:13.428Z,97028.31
2023-04-08T11:23:14.974Z,97020.97
2023-04-08T11:24:16.959Z,97021.81
2023-04-08T11:25:18.656Z,97025.50
2023-04-08T11:26:21.096Z,97023.28
2023-04-08T11:49:53.250Z,97012.34
2023-04-08T11:51:12.274Z,97021.25
2023-04-08T11:52:14.323Z,97013.75
2023-04-08T11:53:18.109Z,97021.75
2023-04-08T11:54:27.632Z,97009.66
2023-04-08T11:55:31.337Z,97008.91
2023-04-08T11:56:49.821Z,97004.28
2023-04-08T11:57:52.723Z,97008.06
2023-04-08T11:58:54.290Z,97021.41
2023-04-08T11:59:55.783Z,97011.03
2023-04-08T12:57:57.131Z,97017.53
2023-04-08T13:00:07.593Z,97023.28
2023-04-08T13:01:09.297Z,97019.59
2023-04-08T13:02:11.126Z,97025.69
2023-04-08T13:03:13.856Z,97014.97
2023-04-08T13:04:15.483Z,97019.53
2023-04-08T13:05:19.777Z,97008.75
2023-04-08T13:06:23.014Z,97018.69
2023-04-08T13:07:24.427Z,97018.28
2023-04-08T13:08:26.016Z,97016.88
2023-04-08T13:09:27.603Z,97018.28
2023-04-08T13:10:29.201Z,97019.50
2023-04-08T13:11:30.922Z,97014.84
2023-04-08T13:12:32.596Z,97011.19
2023-04-08T13:13:34.066Z,97016.41
2023-04-08T13:14:36.045Z,97016.25
2023-04-08T13:15:37.898Z,97014.56
2023-04-08T13:16:39.261Z,97012.91
2023-04-08T13:17:40.700Z,97006.13
2023-04-08T13:18:42.802Z,97015.88
2023-04-08T13:19:44.273Z,97021.50
2023-04-08T13:20:45.789Z,97012.69
2023-04-08T13:21:47.267Z,97018.50
2023-04-08T13:22:48.994Z,97015.59
2023-04-08T13:23:50.546Z,97013.25
2023-04-08T13:24:52.101Z,97017.34
2023-04-08T13:25:53.442Z,97010.09
2023-04-08T13:26:54.908Z,97020.84
2023-04-08T13:27:56.264Z,97019.56
2023-04-08T13:28:58.398Z,97015.75
2023-04-08T13:30:00.247Z,97016.50
2023-04-08T13:31:01.680Z,97011.03
2023-04-08T13:32:03.229Z,97010.44
2023-04-08T13:33:04.804Z,97019.19
2023-04-08T13:34:06.379Z,97009.50
2023-04-08T13:35:08.225Z,97013.91
2023-04-08T13:36:09.588Z,97012.84
2023-04-08T13:37:11.385Z,97016.06
2023-04-08T13:38:12.786Z,97015.31
2023-04-08T13:39:14.149Z,97003.28
2023-04-08T13:40:15.555Z,97008.66
2023-04-08T13:41:17.473Z,97017.34
2023-04-08T13:42:18.964Z,97011.97
2023-04-08T13:43:20.604Z,97010.72
2023-04-08T13:44:21.953Z,97003.38
2023-04-08T13:45:23.560Z,97020.72
2023-04-08T13:46:25.128Z,97011.41
2023-04-08T13:47:27.116Z,97012.03
2023-04-08T13:48:28.544Z,97018.03
2023-04-08T13:49:29.986Z,97016.31
2023-04-08T13:50:31.367Z,97019.25
2023-04-08T13:51:32.802Z,97013.09
2023-04-08T13:52:34.551Z,97017.69
2023-04-08T13:53:36.266Z,97025.28
2023-04-08T13:54:37.816Z,97009.38
2023-04-08T13:55:39.175Z,97018.47
2023-04-08T13:56:40.771Z,97020.53
2023-04-08T13:57:42.303Z,97021.09
2023-04-08T13:58:44.744Z,97022.16
2023-04-08T13:59:47.642Z,97022.59
2023-04-08T14:00:49.162Z,97017.94
2023-04-08T14:01:54.084Z,97023.97
2023-04-08T14:02:55.793Z,97024.81
2023-04-08T14:03:57.314Z,97015.41
2023-04-08T14:04:58.713Z,97019.19
2023-04-08T14:06:01.826Z,97021.56
2023-04-08T14:07:03.427Z,97023.63
2023-04-08T14:08:04.943Z,97016.84
2023-04-08T14:09:06.756Z,97009.19
2023-04-08T14:10:08.735Z,97013.13
2023-04-08T14:11:10.430Z,97016.47
2023-04-08T14:12:11.859Z,97018.59
2023-04-08T14:13:13.186Z,97011.34
2023-04-08T14:14:14.605Z,97020.84
2023-04-08T14:15:16.311Z,97012.91
2023-04-08T14:16:17.786Z,97021.56
2023-04-08T14:17:19.230Z,97020.75
2023-04-08T14:18:20.880Z,97018.47
2023-04-08T14:19:22.379Z,97018.19
2023-04-08T14:20:23.801Z,97022.59
2023-04-08T14:21:25.947Z,97022.53
2023-04-08T14:22:27.365Z,97019.28
2023-04-08T14:23:28.770Z,97024.50
2023-04-08T14:24:30.231Z,97014.13
2023-04-08T14:25:32.417Z,97017.31
2023-04-08T14:26:35.949Z,97016.59
2023-04-08T14:27:47.497Z,97022.78
2023-04-08T14:28:56.876Z,97016.94
2023-04-08T14:29:58.252Z,97015.03
2023-04-08T14:30:59.835Z,97016.25
2023-04-08T14:32:01.322Z,97010.94
2023-04-08T14:33:02.875Z,97005.28
2023-04-08T14:34:04.977Z,97012.06
2023-04-08T14:35:08.725Z,97010.81
2023-04-08T14:36:10.852Z,97008.34
2023-04-08T14:37:12.711Z,97008.53
2023-04-08T14:38:14.119Z,97012.16
2023-04-08T14:39:15.813Z,97021.81
2023-04-08T14:40:17.225Z,97017.63
2023-04-08T14:41:18.595Z,97019.25
2023-04-08T14:42:20.925Z,97019.88
2023-04-08T14:43:22.295Z,96980.44
2023-04-08T14:44:24.092Z,97018.66
2023-04-08T14:45:25.654Z,97016.22
2023-04-08T14:46:28.761Z,97016.09
2023-04-08T14:47:30.667Z,97015.72
2023-04-08T14:48:32.086Z,97010.53
2023-04-08T14:49:33.559Z,97014.84
2023-04-08T14:50:34.940Z,97021.84
2023-04-08T14:51:37.746Z,97021.75
2023-04-08T14:52:39.127Z,97013.97
2023-04-08T14:53:40.593Z,97014.69
2023-04-08T14:54:43.150Z,97017.69
2023-04-08T14:55:44.522Z,97010.66
2023-04-08T14:56:46.111Z,97014.69
2023-04-08T14:57:47.773Z,97009.69
2023-04-08T14:58:49.255Z,97005.66
2023-04-08T14:59:51.379Z,97007.06
2023-04-08T15:00:52.849Z,96982.22
2023-04-08T15:01:54.290Z,97015.63
2023-04-08T15:02:56.038Z,97015.03
2023-04-08T15:03:57.609Z,97021.88
2023-04-08T15:04:59.024Z,97026.25
2023-04-08T15:06:01.255Z,97023.28
2023-04-08T15:07:03.703Z,97021.91
2023-04-08T15:08:05.459Z,97020.06
2023-04-08T15:09:06.953Z,97033.16
2023-04-08T15:10:09.092Z,97019.53
2023-04-08T15:11:10.646Z,97036.59
2023-04-08T15:12:13.668Z,97031.63
2023-04-08T15:13:15.494Z,97033.47
2023-04-08T15:14:16.831Z,97040.16
2023-04-08T15:15:18.208Z,97036.91
2023-04-08T15:16:19.715Z,97034.81
2023-04-08T15:17:21.188Z,97038.25
2023-04-08T15:18:22.592Z,97029.97
2023-04-08T15:19:23.960Z,97037.91
2023-04-08T15:20:25.397Z,97038.34
2023-04-08T15:21:27.239Z,97020.75
